Grosse Isle, Canada
Current Conditions -  °F | °C
As of 4:00 PM on Monday 26 Jan 2015 (Local Time) from CYWG Reporting Station
Broken Clouds Broken Clouds  
Wind Chill: 16°   Ceiling: 1400
Heat Index: 27°   Visibility: 15mi
Dew Point: 21°   Wind: 13mph
Humidity: 80%   Direction: 330°NNW
Pressure: 29.94"   Gusts: NA
Location:  50.06°N, 97.44°W
Report Text: CYWG 262200Z 33011KT 15SM BKN014 M03/M06 A2994 RMK SC7 SLP153
Loading
Personal Weather Stations






























Interactive Weather Map New forecast layout! Learn more

10-Day Weather Forecast

Advertisements
Track Severe Weather on mobile